Terminal Aerodrome Forecast
Issued by NWS Caribou, ME

Home | Current Version | Previous Version | Text Only | Print | Product List | Glossary On
Versions: 1 2 3 4 5 6 7 8 9 10 11 12 13 14 15 16 17 18 19 20 21 22 23 24 25 26 27 28
000
FTUS41 KCAR 241900 AAB
TAFBGR
TAF AMD
KBGR 241942Z 2420/2518 36012KT 6SM -RA SCT008 OVC012
      TEMPO 2420/2422 3SM -DZ BR OVC008
     FM242200 35009KT P6SM OVC015
     FM250200 33006KT 5SM BR SCT015 OVC030
     FM251200 32005KT P6SM SCT030 BKN090=

USA.gov is the U.S. government's official web portal to all federal, state and local government web resources and services.